Chicago, Illinois
Traffic Map
Current Weather Conditions
Chicago, Illinois
Broken Clouds
Broken Clouds
39°
Feels Like: 33°
Wind Chill: 33° Ceiling: 1300
Heat Index: 39° Visibility: 10mi
Dew Point: 35° Wind: 9mph
Humidity: 86% Direction: 280° (W)
Pressure: 29.57in Gusts: 0mph
Raw Report DataKMDW 250221Z 28008KT 10SM FEW008 BKN013 BKN120 04/02 A2957 RMK AO2 T00390017
Traffic Incident Summary
Active as of:
Severity:
Category:
InformationThere was an issue retrieving the traffic information for this location. Please try a different location or try again shortly.
Advertisements
Track Severe Weather on mobile